Terminal Aerodrome Forecast
Issued by NWS

Home | Current Version | Previous Version | Text Only | Print | Product List | Glossary On
Versions: 1 2 3 4 5 6 7 8 9 10 11 12
000
FTUS45 KPIH 051720
TAFSUN
TAF
KSUN 051720Z 0518/0618 16009KT P6SM SCT250
     FM052100 16015KT P6SM FEW090 SCT250
     FM060200 16007KT P6SM SCT250
     FM060600 VRB04KT P6SM SCT060 SCT090 BKN180
     FM061100 32007KT P6SM VCSH SCT060 BKN090 BKN250=

USA.gov is the U.S. government's official web portal to all federal, state and local government web resources and services.